Longview, WA (98632)

2:09 PM PDT on March 27, 2017 (GMT -0700)
kelso north 4th | | Change Station

Elev 30 ft 46.13 °N, 122.91 °W | Updated 19 seconds ago

Rain
Rain
50.2 °F
Feels Like 50.2 °F
N
0.0
Wind Variable Wind from NNE
Gusts 2.2 mph

Today
High -- | Low -- °F
--% Chance of Precip.
Yesterday
High -- | Low -- °F
Precip. -- in
Pressure 30.21 in
Visibility 10.0 miles
Clouds Few 1200 ft
Scattered Clouds 3200 ft
Mostly Cloudy 5500 ft
Dew Point 46 °F
Humidity 86%
Rainfall 0.25 in
Snow Depth Not available.
7:00 AM 7:34 PM
Waning Crescent, 0% visible
METAR KKLS 272056Z AUTO 15008KT 10SM FEW012 SCT032 BKN055 12/08 A3020 RMK AO2 RAE1958B22E39 SLP230 P0000 60010 T01170078 51007
Pressure 30.21 in
Visibility 10.0 miles
Clouds Few 1200 ft
Scattered Clouds 3200 ft
Mostly Cloudy 5500 ft
Dew Point 46 °F
Humidity 86%
Rainfall 0.25 in
Snow Depth Not available.
7:00 AM 7:34 PM
Waning Crescent, 0% visible
METAR KKLS 272056Z AUTO 15008KT 10SM FEW012 SCT032 BKN055 12/08 A3020 RMK AO2 RAE1958B22E39 SLP230 P0000 60010 T01170078 51007

Get Severe Weather Alerts

Thanks for signing up!

Be on the lookout for a verification email in your inbox.

You'll start receiving the daily forecast at 8 AM.

×

10-Day Weather Forecast

Almanac

Astronomy

Mar. 27, 2017 Rise Set
Actual Time
Civil Twilight
Nautical Twilight
Astronomical Twilight
Moon
Length of Visible Light
Length of Day
Tomorrow will be .
, % of the Moon is Illuminated

Today's Extremes

State Highs State Lows

Community

WunderPhotos

Upload Photos

1,962,540 photos uploaded!

WunderBlog® & News

Nearby

Air Quality

  Air Quality AQ Index Pollutant
Not available.

Snow Depth

Station Depth Elevation

Earthquake Activity

City Distance Mag. Time & Date
Minimum magnitude displayed is 2.5.

Earthquake Activity

City Distance Mag. Time & Date
Minimum magnitude displayed is 2.5.

Coastal Water Temperatures

Place Temperature

Stations

Nearby Weather Stations

Station Location Temp. Windchill Dew Point Humidity Wind Precip. Elev Updated Type
                   

Watches & Warnings

There are currently no watches in effect.